sensor_id;sensor_type;location;lat;lon;timestamp;temperature;humidity
11320;DHT22;5715;48.234;14.320;2023-05-07T00:01:16;13.20;99.90
11320;DHT22;5715;48.234;14.320;2023-05-07T00:04:06;13.10;99.90
11320;DHT22;5715;48.234;14.320;2023-05-07T00:06:54;13.20;99.90
11320;DHT22;5715;48.234;14.320;2023-05-07T00:09:42;13.30;99.90
11320;DHT22;5715;48.234;14.320;2023-05-07T00:12:30;13.20;99.90
11320;DHT22;5715;48.234;14.320;2023-05-07T00:15:20;13.00;99.90
11320;DHT22;5715;48.234;14.320;2023-05-07T00:18:08;12.90;99.90
11320;DHT22;5715;48.234;14.320;2023-05-07T00:20:56;12.70;99.90
11320;DHT22;5715;48.234;14.320;2023-05-07T00:23:43;12.60;99.90
11320;DHT22;5715;48.234;14.320;2023-05-07T00:26:31;12.40;99.90
11320;DHT22;5715;48.234;14.320;2023-05-07T00:29:19;12.30;99.90
11320;DHT22;5715;48.234;14.320;2023-05-07T00:32:06;12.20;99.90
11320;DHT22;5715;48.234;14.320;2023-05-07T00:34:55;12.10;99.90
11320;DHT22;5715;48.234;14.320;2023-05-07T00:37:42;12.00;99.90
11320;DHT22;5715;48.234;14.320;2023-05-07T00:40:30;12.00;99.90
11320;DHT22;5715;48.234;14.320;2023-05-07T00:43:17;11.90;99.90
11320;DHT22;5715;48.234;14.320;2023-05-07T00:46:05;11.80;99.90
11320;DHT22;5715;48.234;14.320;2023-05-07T00:48:53;11.80;99.90
11320;DHT22;5715;48.234;14.320;2023-05-07T00:51:41;11.70;99.90
11320;DHT22;5715;48.234;14.320;2023-05-07T00:54:29;11.60;99.90
11320;DHT22;5715;48.234;14.320;2023-05-07T00:57:17;11.60;99.90
11320;DHT22;5715;48.234;14.320;2023-05-07T01:00:06;11.60;99.90
11320;DHT22;5715;48.234;14.320;2023-05-07T01:02:56;11.50;99.90
11320;DHT22;5715;48.234;14.320;2023-05-07T01:05:46;11.50;99.90
11320;DHT22;5715;48.234;14.320;2023-05-07T01:08:37;11.50;99.90
11320;DHT22;5715;48.234;14.320;2023-05-07T01:11:26;11.50;99.90
11320;DHT22;5715;48.234;14.320;2023-05-07T01:14:14;11.50;99.90
11320;DHT22;5715;48.234;14.320;2023-05-07T01:17:02;11.50;99.90
11320;DHT22;5715;48.234;14.320;2023-05-07T01:19:50;11.50;99.90
11320;DHT22;5715;48.234;14.320;2023-05-07T01:22:40;11.50;99.90
11320;DHT22;5715;48.234;14.320;2023-05-07T01:25:28;11.50;99.90
11320;DHT22;5715;48.234;14.320;2023-05-07T01:28:17;11.50;99.90
11320;DHT22;5715;48.234;14.320;2023-05-07T01:31:05;11.50;99.90
11320;DHT22;5715;48.234;14.320;2023-05-07T01:33:54;11.50;99.90
11320;DHT22;5715;48.234;14.320;2023-05-07T01:36:44;11.60;99.90
11320;DHT22;5715;48.234;14.320;2023-05-07T01:39:33;11.60;99.90
11320;DHT22;5715;48.234;14.320;2023-05-07T01:42:21;11.60;99.90
11320;DHT22;5715;48.234;14.320;2023-05-07T01:45:10;11.60;99.90
11320;DHT22;5715;48.234;14.320;2023-05-07T01:47:58;11.60;99.90
11320;DHT22;5715;48.234;14.320;2023-05-07T01:50:47;11.60;99.90
11320;DHT22;5715;48.234;14.320;2023-05-07T01:53:36;11.60;99.90
11320;DHT22;5715;48.234;14.320;2023-05-07T01:56:25;11.50;99.90
11320;DHT22;5715;48.234;14.320;2023-05-07T01:59:12;11.50;99.90
11320;DHT22;5715;48.234;14.320;2023-05-07T02:02:00;11.50;99.90
11320;DHT22;5715;48.234;14.320;2023-05-07T02:04:48;11.50;99.90
11320;DHT22;5715;48.234;14.320;2023-05-07T02:07:35;11.40;99.90
11320;DHT22;5715;48.234;14.320;2023-05-07T02:10:23;11.40;99.90
11320;DHT22;5715;48.234;14.320;2023-05-07T02:13:11;11.30;99.90
11320;DHT22;5715;48.234;14.320;2023-05-07T02:15:58;11.30;99.90
11320;DHT22;5715;48.234;14.320;2023-05-07T02:18:46;11.20;99.90
11320;DHT22;5715;48.234;14.320;2023-05-07T02:21:33;11.20;99.90
11320;DHT22;5715;48.234;14.320;2023-05-07T02:24:21;11.10;99.90
11320;DHT22;5715;48.234;14.320;2023-05-07T02:27:08;11.10;99.90
11320;DHT22;5715;48.234;14.320;2023-05-07T02:29:56;11.10;99.90
11320;DHT22;5715;48.234;14.320;2023-05-07T02:32:43;11.10;99.90
11320;DHT22;5715;48.234;14.320;2023-05-07T02:35:31;11.10;99.90
11320;DHT22;5715;48.234;14.320;2023-05-07T02:38:19;11.10;99.90
11320;DHT22;5715;48.234;14.320;2023-05-07T02:41:06;11.00;99.90
11320;DHT22;5715;48.234;14.320;2023-05-07T02:43:54;11.00;99.90
11320;DHT22;5715;48.234;14.320;2023-05-07T02:46:41;11.00;99.90
11320;DHT22;5715;48.234;14.320;2023-05-07T02:49:29;11.00;99.90
11320;DHT22;5715;48.234;14.320;2023-05-07T02:52:16;11.00;99.90
11320;DHT22;5715;48.234;14.320;2023-05-07T02:55:04;10.90;99.90
11320;DHT22;5715;48.234;14.320;2023-05-07T02:57:52;10.90;99.90
11320;DHT22;5715;48.234;14.320;2023-05-07T03:00:40;11.00;99.90
11320;DHT22;5715;48.234;14.320;2023-05-07T03:03:27;10.90;99.90
11320;DHT22;5715;48.234;14.320;2023-05-07T03:06:15;10.90;99.90
11320;DHT22;5715;48.234;14.320;2023-05-07T03:09:02;10.90;99.90
11320;DHT22;5715;48.234;14.320;2023-05-07T03:11:50;10.90;99.90
11320;DHT22;5715;48.234;14.320;2023-05-07T03:14:38;10.90;99.90
11320;DHT22;5715;48.234;14.320;2023-05-07T03:17:26;10.90;99.90
11320;DHT22;5715;48.234;14.320;2023-05-07T03:20:13;10.90;99.90
11320;DHT22;5715;48.234;14.320;2023-05-07T03:23:02;10.90;99.90
11320;DHT22;5715;48.234;14.320;2023-05-07T03:25:50;10.90;99.90
11320;DHT22;5715;48.234;14.320;2023-05-07T03:28:37;10.90;99.90
11320;DHT22;5715;48.234;14.320;2023-05-07T03:31:25;10.90;99.90
11320;DHT22;5715;48.234;14.320;2023-05-07T03:34:12;10.90;99.90
11320;DHT22;5715;48.234;14.320;2023-05-07T03:37:00;10.90;99.90
11320;DHT22;5715;48.234;14.320;2023-05-07T03:39:47;11.00;99.90
11320;DHT22;5715;48.234;14.320;2023-05-07T03:42:35;11.00;99.90
11320;DHT22;5715;48.234;14.320;2023-05-07T03:45:23;11.10;99.90
11320;DHT22;5715;48.234;14.320;2023-05-07T03:48:10;11.30;99.90
11320;DHT22;5715;48.234;14.320;2023-05-07T03:50:58;11.50;99.90
11320;DHT22;5715;48.234;14.320;2023-05-07T03:53:46;11.80;99.90
11320;DHT22;5715;48.234;14.320;2023-05-07T03:56:33;11.90;99.90
11320;DHT22;5715;48.234;14.320;2023-05-07T03:59:22;12.00;99.90
11320;DHT22;5715;48.234;14.320;2023-05-07T04:02:09;12.20;99.90
11320;DHT22;5715;48.234;14.320;2023-05-07T04:04:57;12.30;99.90
11320;DHT22;5715;48.234;14.320;2023-05-07T04:07:44;12.40;99.90
11320;DHT22;5715;48.234;14.320;2023-05-07T04:10:32;12.50;99.90
11320;DHT22;5715;48.234;14.320;2023-05-07T04:13:19;12.50;99.90
11320;DHT22;5715;48.234;14.320;2023-05-07T04:16:07;12.60;99.90
11320;DHT22;5715;48.234;14.320;2023-05-07T04:18:55;12.70;99.90
11320;DHT22;5715;48.234;14.320;2023-05-07T04:21:43;12.80;99.90
11320;DHT22;5715;48.234;14.320;2023-05-07T04:24:33;12.80;99.90
11320;DHT22;5715;48.234;14.320;2023-05-07T04:27:21;12.90;99.90
11320;DHT22;5715;48.234;14.320;2023-05-07T04:30:09;13.00;99.90
11320;DHT22;5715;48.234;14.320;2023-05-07T04:32:57;13.20;99.90
11320;DHT22;5715;48.234;14.320;2023-05-07T04:35:45;13.40;99.90
11320;DHT22;5715;48.234;14.320;2023-05-07T04:38:33;13.60;99.90
11320;DHT22;5715;48.234;14.320;2023-05-07T04:41:20;13.70;99.90
11320;DHT22;5715;48.234;14.320;2023-05-07T04:44:08;13.80;99.90
11320;DHT22;5715;48.234;14.320;2023-05-07T04:46:56;13.90;99.90
11320;DHT22;5715;48.234;14.320;2023-05-07T04:49:44;13.90;99.90
11320;DHT22;5715;48.234;14.320;2023-05-07T04:52:32;14.00;99.90
11320;DHT22;5715;48.234;14.320;2023-05-07T04:55:19;13.90;99.90
11320;DHT22;5715;48.234;14.320;2023-05-07T04:58:08;13.90;99.90
11320;DHT22;5715;48.234;14.320;2023-05-07T05:00:56;13.90;99.90
11320;DHT22;5715;48.234;14.320;2023-05-07T05:03:43;13.80;99.90
11320;DHT22;5715;48.234;14.320;2023-05-07T05:06:31;14.00;99.90
11320;DHT22;5715;48.234;14.320;2023-05-07T05:09:19;14.10;99.90
11320;DHT22;5715;48.234;14.320;2023-05-07T05:12:06;14.20;99.90
11320;DHT22;5715;48.234;14.320;2023-05-07T05:14:54;14.40;99.90
11320;DHT22;5715;48.234;14.320;2023-05-07T05:17:42;14.70;99.90
11320;DHT22;5715;48.234;14.320;2023-05-07T05:20:29;15.10;99.90
11320;DHT22;5715;48.234;14.320;2023-05-07T05:23:17;15.50;99.90
11320;DHT22;5715;48.234;14.320;2023-05-07T05:26:04;15.80;99.90
11320;DHT22;5715;48.234;14.320;2023-05-07T05:28:52;16.30;99.90
11320;DHT22;5715;48.234;14.320;2023-05-07T05:31:40;16.70;99.90
11320;DHT22;5715;48.234;14.320;2023-05-07T05:34:28;17.20;99.90
11320;DHT22;5715;48.234;14.320;2023-05-07T05:37:16;17.90;99.90
11320;DHT22;5715;48.234;14.320;2023-05-07T05:40:04;18.20;99.90
11320;DHT22;5715;48.234;14.320;2023-05-07T05:42:52;18.20;99.90
11320;DHT22;5715;48.234;14.320;2023-05-07T05:45:39;18.10;99.90
11320;DHT22;5715;48.234;14.320;2023-05-07T05:48:28;17.90;99.90
11320;DHT22;5715;48.234;14.320;2023-05-07T05:51:16;17.70;99.90
11320;DHT22;5715;48.234;14.320;2023-05-07T05:54:04;17.60;99.90
11320;DHT22;5715;48.234;14.320;2023-05-07T05:56:51;17.70;99.90
11320;DHT22;5715;48.234;14.320;2023-05-07T05:59:39;17.90;99.90
11320;DHT22;5715;48.234;14.320;2023-05-07T06:02:26;17.60;99.90
11320;DHT22;5715;48.234;14.320;2023-05-07T06:05:14;17.00;99.90
11320;DHT22;5715;48.234;14.320;2023-05-07T06:08:02;16.80;99.90
11320;DHT22;5715;48.234;14.320;2023-05-07T06:10:50;16.60;99.90
11320;DHT22;5715;48.234;14.320;2023-05-07T06:13:38;16.60;99.90
11320;DHT22;5715;48.234;14.320;2023-05-07T06:16:25;16.60;99.90
11320;DHT22;5715;48.234;14.320;2023-05-07T06:19:13;16.50;99.90
11320;DHT22;5715;48.234;14.320;2023-05-07T06:22:01;16.50;99.90
11320;DHT22;5715;48.234;14.320;2023-05-07T06:24:49;16.50;99.90
11320;DHT22;5715;48.234;14.320;2023-05-07T06:27:37;16.40;99.90
11320;DHT22;5715;48.234;14.320;2023-05-07T06:30:26;16.60;99.90
11320;DHT22;5715;48.234;14.320;2023-05-07T06:33:14;16.70;99.90
11320;DHT22;5715;48.234;14.320;2023-05-07T06:36:02;16.80;99.90
11320;DHT22;5715;48.234;14.320;2023-05-07T06:38:49;16.80;99.90
11320;DHT22;5715;48.234;14.320;2023-05-07T06:41:37;16.90;99.90
11320;DHT22;5715;48.234;14.320;2023-05-07T06:44:24;16.80;99.90
11320;DHT22;5715;48.234;14.320;2023-05-07T06:47:12;16.90;99.90
11320;DHT22;5715;48.234;14.320;2023-05-07T06:50:02;17.00;99.90
11320;DHT22;5715;48.234;14.320;2023-05-07T06:52:50;17.00;99.90
11320;DHT22;5715;48.234;14.320;2023-05-07T06:55:37;17.00;99.90
11320;DHT22;5715;48.234;14.320;2023-05-07T06:58:25;17.20;99.90
11320;DHT22;5715;48.234;14.320;2023-05-07T07:01:12;17.20;99.90
11320;DHT22;5715;48.234;14.320;2023-05-07T07:04:00;17.20;99.90
11320;DHT22;5715;48.234;14.320;2023-05-07T07:06:47;17.40;99.90
11320;DHT22;5715;48.234;14.320;2023-05-07T07:09:35;17.40;99.90
11320;DHT22;5715;48.234;14.320;2023-05-07T07:12:22;17.50;99.90
11320;DHT22;5715;48.234;14.320;2023-05-07T07:15:12;17.60;99.90
11320;DHT22;5715;48.234;14.320;2023-05-07T07:18:01;17.70;99.90
11320;DHT22;5715;48.234;14.320;2023-05-07T07:20:48;17.80;99.90
11320;DHT22;5715;48.234;14.320;2023-05-07T07:23:36;17.90;99.90
11320;DHT22;5715;48.234;14.320;2023-05-07T07:26:24;17.90;99.90
11320;DHT22;5715;48.234;14.320;2023-05-07T07:29:11;17.90;99.90
11320;DHT22;5715;48.234;14.320;2023-05-07T07:31:59;18.10;99.90
11320;DHT22;5715;48.234;14.320;2023-05-07T07:34:47;18.20;99.90
11320;DHT22;5715;48.234;14.320;2023-05-07T07:37:37;18.30;99.90
11320;DHT22;5715;48.234;14.320;2023-05-07T07:40:25;18.30;99.90
11320;DHT22;5715;48.234;14.320;2023-05-07T07:43:13;18.40;99.90
11320;DHT22;5715;48.234;14.320;2023-05-07T07:46:00;18.40;99.90
11320;DHT22;5715;48.234;14.320;2023-05-07T07:48:48;18.50;99.90
11320;DHT22;5715;48.234;14.320;2023-05-07T07:51:35;18.60;99.90
11320;DHT22;5715;48.234;14.320;2023-05-07T07:54:23;18.60;99.90
11320;DHT22;5715;48.234;14.320;2023-05-07T07:57:11;18.70;99.90
11320;DHT22;5715;48.234;14.320;2023-05-07T07:59:58;18.70;99.90
11320;DHT22;5715;48.234;14.320;2023-05-07T08:02:46;18.80;99.90
11320;DHT22;5715;48.234;14.320;2023-05-07T08:05:34;18.80;99.90
11320;DHT22;5715;48.234;14.320;2023-05-07T08:08:22;18.70;99.90
11320;DHT22;5715;48.234;14.320;2023-05-07T08:11:10;18.80;99.90
11320;DHT22;5715;48.234;14.320;2023-05-07T08:13:57;18.80;99.90
11320;DHT22;5715;48.234;14.320;2023-05-07T08:16:45;19.00;99.90
11320;DHT22;5715;48.234;14.320;2023-05-07T08:19:33;19.20;99.90
11320;DHT22;5715;48.234;14.320;2023-05-07T08:22:20;19.30;99.90
11320;DHT22;5715;48.234;14.320;2023-05-07T08:25:11;19.50;99.90
11320;DHT22;5715;48.234;14.320;2023-05-07T08:27:59;19.50;99.90
11320;DHT22;5715;48.234;14.320;2023-05-07T08:30:46;19.50;99.90
11320;DHT22;5715;48.234;14.320;2023-05-07T08:33:34;19.70;99.90
11320;DHT22;5715;48.234;14.320;2023-05-07T08:36:25;19.90;99.90
11320;DHT22;5715;48.234;14.320;2023-05-07T08:39:13;19.90;99.90
11320;DHT22;5715;48.234;14.320;2023-05-07T08:42:01;20.00;99.90
11320;DHT22;5715;48.234;14.320;2023-05-07T08:44:51;20.10;99.90
11320;DHT22;5715;48.234;14.320;2023-05-07T08:47:45;20.20;99.90
11320;DHT22;5715;48.234;14.320;2023-05-07T08:50:37;20.30;99.90
11320;DHT22;5715;48.234;14.320;2023-05-07T08:53:25;20.30;99.90
11320;DHT22;5715;48.234;14.320;2023-05-07T08:56:13;20.20;99.90
11320;DHT22;5715;48.234;14.320;2023-05-07T08:59:02;20.20;99.90
11320;DHT22;5715;48.234;14.320;2023-05-07T09:01:50;20.30;99.90
11320;DHT22;5715;48.234;14.320;2023-05-07T09:04:38;20.50;99.90
11320;DHT22;5715;48.234;14.320;2023-05-07T09:07:26;20.60;99.90
11320;DHT22;5715;48.234;14.320;2023-05-07T09:10:14;20.80;99.90
11320;DHT22;5715;48.234;14.320;2023-05-07T09:13:02;21.00;99.90
11320;DHT22;5715;48.234;14.320;2023-05-07T09:15:51;21.20;99.90
11320;DHT22;5715;48.234;14.320;2023-05-07T09:18:44;21.00;99.90
11320;DHT22;5715;48.234;14.320;2023-05-07T09:21:33;21.10;99.90
11320;DHT22;5715;48.234;14.320;2023-05-07T09:24:21;21.20;99.90
11320;DHT22;5715;48.234;14.320;2023-05-07T09:27:08;21.20;99.90
11320;DHT22;5715;48.234;14.320;2023-05-07T09:29:58;21.10;99.90
11320;DHT22;5715;48.234;14.320;2023-05-07T09:32:46;21.20;99.90
11320;DHT22;5715;48.234;14.320;2023-05-07T09:35:33;21.20;99.90
11320;DHT22;5715;48.234;14.320;2023-05-07T09:38:21;21.30;99.90
11320;DHT22;5715;48.234;14.320;2023-05-07T09:41:11;21.40;99.90
11320;DHT22;5715;48.234;14.320;2023-05-07T09:43:59;21.30;99.90
11320;DHT22;5715;48.234;14.320;2023-05-07T09:46:53;21.50;99.90
11320;DHT22;5715;48.234;14.320;2023-05-07T09:49:43;21.60;99.90
11320;DHT22;5715;48.234;14.320;2023-05-07T09:52:35;21.60;99.90
11320;DHT22;5715;48.234;14.320;2023-05-07T09:55:26;21.60;99.90
11320;DHT22;5715;48.234;14.320;2023-05-07T09:58:16;21.50;99.90
11320;DHT22;5715;48.234;14.320;2023-05-07T10:01:06;21.50;99.90
11320;DHT22;5715;48.234;14.320;2023-05-07T10:03:54;21.60;99.90
11320;DHT22;5715;48.234;14.320;2023-05-07T10:06:44;21.70;99.90
11320;DHT22;5715;48.234;14.320;2023-05-07T10:09:33;21.80;99.90
11320;DHT22;5715;48.234;14.320;2023-05-07T10:12:26;21.90;99.90
11320;DHT22;5715;48.234;14.320;2023-05-07T10:15:14;22.10;99.90
11320;DHT22;5715;48.234;14.320;2023-05-07T10:18:03;22.20;99.90
11320;DHT22;5715;48.234;14.320;2023-05-07T10:20:54;22.40;99.90
11320;DHT22;5715;48.234;14.320;2023-05-07T10:23:50;22.50;99.90
11320;DHT22;5715;48.234;14.320;2023-05-07T10:26:46;22.40;99.90
11320;DHT22;5715;48.234;14.320;2023-05-07T10:32:55;22.30;99.90
11320;DHT22;5715;48.234;14.320;2023-05-07T10:35:57;22.40;99.90
11320;DHT22;5715;48.234;14.320;2023-05-07T10:38:46;22.40;99.90
11320;DHT22;5715;48.234;14.320;2023-05-07T10:41:34;22.60;99.90
11320;DHT22;5715;48.234;14.320;2023-05-07T10:44:26;22.50;99.90
11320;DHT22;5715;48.234;14.320;2023-05-07T10:47:16;22.60;99.90
11320;DHT22;5715;48.234;14.320;2023-05-07T10:53:20;22.60;99.90
11320;DHT22;5715;48.234;14.320;2023-05-07T11:02:10;22.60;99.90
11320;DHT22;5715;48.234;14.320;2023-05-07T11:05:23;22.80;99.90
11320;DHT22;5715;48.234;14.320;2023-05-07T11:08:11;22.80;99.90
11320;DHT22;5715;48.234;14.320;2023-05-07T11:10:59;22.90;99.90
11320;DHT22;5715;48.234;14.320;2023-05-07T11:13:48;22.80;99.90
11320;DHT22;5715;48.234;14.320;2023-05-07T11:16:37;22.90;99.90
11320;DHT22;5715;48.234;14.320;2023-05-07T11:19:54;22.70;99.90
11320;DHT22;5715;48.234;14.320;2023-05-07T11:22:42;22.80;99.90
11320;DHT22;5715;48.234;14.320;2023-05-07T11:25:30;22.80;99.90
11320;DHT22;5715;48.234;14.320;2023-05-07T11:28:17;22.80;99.90
11320;DHT22;5715;48.234;14.320;2023-05-07T11:31:05;22.90;99.90
11320;DHT22;5715;48.234;14.320;2023-05-07T11:33:54;22.90;99.90
11320;DHT22;5715;48.234;14.320;2023-05-07T11:36:43;23.10;99.90
11320;DHT22;5715;48.234;14.320;2023-05-07T11:39:33;23.10;99.90
11320;DHT22;5715;48.234;14.320;2023-05-07T11:42:28;23.00;99.90
11320;DHT22;5715;48.234;14.320;2023-05-07T11:45:23;22.90;99.90
11320;DHT22;5715;48.234;14.320;2023-05-07T11:48:14;23.20;99.90
11320;DHT22;5715;48.234;14.320;2023-05-07T11:51:06;23.30;99.90
11320;DHT22;5715;48.234;14.320;2023-05-07T11:53:59;23.20;99.90
11320;DHT22;5715;48.234;14.320;2023-05-07T11:56:46;23.10;99.90
11320;DHT22;5715;48.234;14.320;2023-05-07T11:59:40;23.20;99.90
11320;DHT22;5715;48.234;14.320;2023-05-07T12:02:28;23.30;99.90
11320;DHT22;5715;48.234;14.320;2023-05-07T12:05:16;23.50;99.90
11320;DHT22;5715;48.234;14.320;2023-05-07T12:08:03;23.40;99.90
11320;DHT22;5715;48.234;14.320;2023-05-07T12:10:51;23.50;99.90
11320;DHT22;5715;48.234;14.320;2023-05-07T12:13:40;23.60;99.90
11320;DHT22;5715;48.234;14.320;2023-05-07T12:16:29;23.60;99.90
11320;DHT22;5715;48.234;14.320;2023-05-07T12:19:17;23.50;99.90
11320;DHT22;5715;48.234;14.320;2023-05-07T12:22:07;23.60;99.90
11320;DHT22;5715;48.234;14.320;2023-05-07T12:24:58;23.70;99.90
11320;DHT22;5715;48.234;14.320;2023-05-07T12:27:52;23.80;99.90
11320;DHT22;5715;48.234;14.320;2023-05-07T12:30:41;24.00;99.90
11320;DHT22;5715;48.234;14.320;2023-05-07T12:33:29;24.10;99.90
11320;DHT22;5715;48.234;14.320;2023-05-07T12:36:18;24.00;99.90
11320;DHT22;5715;48.234;14.320;2023-05-07T12:39:08;23.80;99.90
11320;DHT22;5715;48.234;14.320;2023-05-07T12:41:58;23.90;99.90
11320;DHT22;5715;48.234;14.320;2023-05-07T12:44:47;24.10;99.90
11320;DHT22;5715;48.234;14.320;2023-05-07T12:47:35;24.20;99.90
11320;DHT22;5715;48.234;14.320;2023-05-07T12:50:23;24.20;99.90
11320;DHT22;5715;48.234;14.320;2023-05-07T12:53:12;24.10;99.90
11320;DHT22;5715;48.234;14.320;2023-05-07T12:55:59;24.10;99.90
11320;DHT22;5715;48.234;14.320;2023-05-07T12:58:48;24.20;99.90
11320;DHT22;5715;48.234;14.320;2023-05-07T13:01:36;24.20;99.90
11320;DHT22;5715;48.234;14.320;2023-05-07T13:04:25;24.10;99.90
11320;DHT22;5715;48.234;14.320;2023-05-07T13:07:13;24.10;99.90
11320;DHT22;5715;48.234;14.320;2023-05-07T13:10:00;24.20;99.90
11320;DHT22;5715;48.234;14.320;2023-05-07T13:12:48;24.20;99.90
11320;DHT22;5715;48.234;14.320;2023-05-07T13:15:36;24.10;99.90
11320;DHT22;5715;48.234;14.320;2023-05-07T13:18:25;24.00;99.90
11320;DHT22;5715;48.234;14.320;2023-05-07T13:21:13;23.90;99.90
11320;DHT22;5715;48.234;14.320;2023-05-07T13:24:01;24.00;99.90
11320;DHT22;5715;48.234;14.320;2023-05-07T13:26:48;24.10;99.90
11320;DHT22;5715;48.234;14.320;2023-05-07T13:29:36;23.90;99.90
11320;DHT22;5715;48.234;14.320;2023-05-07T13:32:23;24.10;99.90
11320;DHT22;5715;48.234;14.320;2023-05-07T13:35:11;24.20;99.90
11320;DHT22;5715;48.234;14.320;2023-05-07T13:37:59;24.20;99.90
11320;DHT22;5715;48.234;14.320;2023-05-07T13:40:46;24.10;99.90
11320;DHT22;5715;48.234;14.320;2023-05-07T13:43:34;23.90;99.90
11320;DHT22;5715;48.234;14.320;2023-05-07T13:46:22;23.90;99.90
11320;DHT22;5715;48.234;14.320;2023-05-07T13:49:09;23.80;99.90
11320;DHT22;5715;48.234;14.320;2023-05-07T13:51:58;23.90;99.90
11320;DHT22;5715;48.234;14.320;2023-05-07T13:54:45;23.80;99.90
11320;DHT22;5715;48.234;14.320;2023-05-07T13:57:33;23.90;99.90
11320;DHT22;5715;48.234;14.320;2023-05-07T14:00:20;24.20;99.90
11320;DHT22;5715;48.234;14.320;2023-05-07T14:03:08;24.20;99.90
11320;DHT22;5715;48.234;14.320;2023-05-07T14:05:59;24.00;99.90
11320;DHT22;5715;48.234;14.320;2023-05-07T14:08:48;24.00;99.90
11320;DHT22;5715;48.234;14.320;2023-05-07T14:11:35;23.90;99.90
11320;DHT22;5715;48.234;14.320;2023-05-07T14:14:23;23.90;99.90
11320;DHT22;5715;48.234;14.320;2023-05-07T14:17:10;23.80;99.90
11320;DHT22;5715;48.234;14.320;2023-05-07T14:19:58;23.90;99.90
11320;DHT22;5715;48.234;14.320;2023-05-07T14:22:46;23.70;99.90
11320;DHT22;5715;48.234;14.320;2023-05-07T14:25:33;23.80;99.90
11320;DHT22;5715;48.234;14.320;2023-05-07T14:28:21;23.60;99.90
11320;DHT22;5715;48.234;14.320;2023-05-07T14:31:08;23.50;99.90
11320;DHT22;5715;48.234;14.320;2023-05-07T14:33:56;23.20;99.90
11320;DHT22;5715;48.234;14.320;2023-05-07T14:36:45;23.10;99.90
11320;DHT22;5715;48.234;14.320;2023-05-07T14:39:32;23.00;99.90
11320;DHT22;5715;48.234;14.320;2023-05-07T14:42:20;22.90;99.90
11320;DHT22;5715;48.234;14.320;2023-05-07T14:45:08;22.80;99.90
11320;DHT22;5715;48.234;14.320;2023-05-07T14:47:57;22.70;99.90
11320;DHT22;5715;48.234;14.320;2023-05-07T14:50:47;22.90;99.90
11320;DHT22;5715;48.234;14.320;2023-05-07T14:53:35;22.90;99.90
11320;DHT22;5715;48.234;14.320;2023-05-07T14:56:23;22.90;99.90
11320;DHT22;5715;48.234;14.320;2023-05-07T14:59:10;22.90;99.90
11320;DHT22;5715;48.234;14.320;2023-05-07T15:01:58;23.00;99.90
11320;DHT22;5715;48.234;14.320;2023-05-07T15:04:46;22.90;99.90
11320;DHT22;5715;48.234;14.320;2023-05-07T15:07:34;22.80;99.90
11320;DHT22;5715;48.234;14.320;2023-05-07T15:10:21;22.90;99.90
11320;DHT22;5715;48.234;14.320;2023-05-07T15:13:10;22.70;99.90
11320;DHT22;5715;48.234;14.320;2023-05-07T15:16:02;22.70;99.90
11320;DHT22;5715;48.234;14.320;2023-05-07T15:18:49;22.60;99.90
11320;DHT22;5715;48.234;14.320;2023-05-07T15:21:37;22.50;99.90
11320;DHT22;5715;48.234;14.320;2023-05-07T15:24:24;22.40;99.90
11320;DHT22;5715;48.234;14.320;2023-05-07T15:27:12;22.30;99.90
11320;DHT22;5715;48.234;14.320;2023-05-07T15:29:59;22.20;99.90
11320;DHT22;5715;48.234;14.320;2023-05-07T15:32:48;22.10;99.90
11320;DHT22;5715;48.234;14.320;2023-05-07T15:35:36;22.00;99.90
11320;DHT22;5715;48.234;14.320;2023-05-07T15:38:24;22.00;99.90
11320;DHT22;5715;48.234;14.320;2023-05-07T15:41:13;21.70;99.90
11320;DHT22;5715;48.234;14.320;2023-05-07T15:44:00;21.70;99.90
11320;DHT22;5715;48.234;14.320;2023-05-07T15:46:48;21.50;99.90
11320;DHT22;5715;48.234;14.320;2023-05-07T15:49:36;21.30;99.90
11320;DHT22;5715;48.234;14.320;2023-05-07T15:52:24;21.20;99.90
11320;DHT22;5715;48.234;14.320;2023-05-07T15:55:12;21.20;99.90
11320;DHT22;5715;48.234;14.320;2023-05-07T15:58:00;21.20;99.90
11320;DHT22;5715;48.234;14.320;2023-05-07T16:00:48;21.20;99.90
11320;DHT22;5715;48.234;14.320;2023-05-07T16:03:35;21.10;99.90
11320;DHT22;5715;48.234;14.320;2023-05-07T16:06:24;21.10;99.90
11320;DHT22;5715;48.234;14.320;2023-05-07T16:09:14;21.00;99.90
11320;DHT22;5715;48.234;14.320;2023-05-07T16:12:03;20.90;99.90
11320;DHT22;5715;48.234;14.320;2023-05-07T16:14:51;20.80;99.90
11320;DHT22;5715;48.234;14.320;2023-05-07T16:17:38;20.70;99.90
11320;DHT22;5715;48.234;14.320;2023-05-07T16:20:27;20.60;99.90
11320;DHT22;5715;48.234;14.320;2023-05-07T16:23:19;20.60;99.90
11320;DHT22;5715;48.234;14.320;2023-05-07T16:26:07;20.50;99.90
11320;DHT22;5715;48.234;14.320;2023-05-07T16:28:55;20.50;99.90
11320;DHT22;5715;48.234;14.320;2023-05-07T16:31:42;20.40;99.90
11320;DHT22;5715;48.234;14.320;2023-05-07T16:34:30;20.30;99.90
11320;DHT22;5715;48.234;14.320;2023-05-07T16:37:18;20.40;99.90
11320;DHT22;5715;48.234;14.320;2023-05-07T16:40:07;20.20;99.90
11320;DHT22;5715;48.234;14.320;2023-05-07T16:42:55;20.10;99.90
11320;DHT22;5715;48.234;14.320;2023-05-07T16:45:46;20.00;99.90
11320;DHT22;5715;48.234;14.320;2023-05-07T16:48:34;19.90;99.90
11320;DHT22;5715;48.234;14.320;2023-05-07T16:51:22;19.80;99.90
11320;DHT22;5715;48.234;14.320;2023-05-07T16:54:10;19.70;99.90
11320;DHT22;5715;48.234;14.320;2023-05-07T16:56:58;19.60;99.90
11320;DHT22;5715;48.234;14.320;2023-05-07T16:59:46;19.60;99.90
11320;DHT22;5715;48.234;14.320;2023-05-07T17:02:33;19.60;99.90
11320;DHT22;5715;48.234;14.320;2023-05-07T17:05:22;19.50;99.90
11320;DHT22;5715;48.234;14.320;2023-05-07T17:08:10;19.30;99.90
11320;DHT22;5715;48.234;14.320;2023-05-07T17:11:00;19.30;99.90
11320;DHT22;5715;48.234;14.320;2023-05-07T17:13:48;19.20;99.90
11320;DHT22;5715;48.234;14.320;2023-05-07T17:16:36;19.10;99.90
11320;DHT22;5715;48.234;14.320;2023-05-07T17:19:24;19.00;99.90
11320;DHT22;5715;48.234;14.320;2023-05-07T17:22:11;19.00;99.90
11320;DHT22;5715;48.234;14.320;2023-05-07T17:24:59;19.00;99.90
11320;DHT22;5715;48.234;14.320;2023-05-07T17:27:49;18.90;99.90
11320;DHT22;5715;48.234;14.320;2023-05-07T17:30:37;18.80;99.90
11320;DHT22;5715;48.234;14.320;2023-05-07T17:33:25;18.70;99.90
11320;DHT22;5715;48.234;14.320;2023-05-07T17:36:13;18.70;99.90
11320;DHT22;5715;48.234;14.320;2023-05-07T17:39:02;18.70;99.90
11320;DHT22;5715;48.234;14.320;2023-05-07T17:41:50;18.60;99.90
11320;DHT22;5715;48.234;14.320;2023-05-07T17:44:38;18.50;99.90
11320;DHT22;5715;48.234;14.320;2023-05-07T17:47:25;18.40;99.90
11320;DHT22;5715;48.234;14.320;2023-05-07T17:50:13;18.30;99.90
11320;DHT22;5715;48.234;14.320;2023-05-07T17:53:01;18.30;99.90
11320;DHT22;5715;48.234;14.320;2023-05-07T17:55:48;18.20;99.90